createdAt,value
2023-04-18T00:00:12.196Z,97.00
2023-04-18T00:02:40.352Z,97.10
2023-04-18T00:05:08.342Z,97.20
2023-04-18T00:07:35.700Z,97.40
2023-04-18T00:10:06.714Z,97.50
2023-04-18T00:12:34.534Z,97.80
2023-04-18T00:15:02.415Z,96.70
2023-04-18T00:17:30.390Z,97.40
2023-04-18T00:19:58.665Z,97.00
2023-04-18T00:22:25.928Z,97.00
2023-04-18T00:24:52.737Z,97.00
2023-04-18T00:27:20.423Z,97.30
2023-04-18T00:29:47.903Z,97.10
2023-04-18T00:32:15.105Z,97.20
2023-04-18T00:34:41.920Z,96.70
2023-04-18T00:37:08.907Z,97.20
2023-04-18T00:39:36.479Z,97.10
2023-04-18T00:42:04.167Z,97.40
2023-04-18T00:44:31.977Z,97.60
2023-04-18T00:46:59.026Z,97.90
2023-04-18T00:49:26.966Z,97.70
2023-04-18T00:51:57.630Z,97.70
2023-04-18T00:54:25.624Z,97.30
2023-04-18T00:56:52.983Z,97.10
2023-04-18T00:59:22.112Z,97.30
2023-04-18T01:01:49.228Z,96.90
2023-04-18T01:04:17.681Z,97.40
2023-04-18T01:06:45.733Z,97.40
2023-04-18T01:09:14.072Z,98.10
2023-04-18T01:11:40.972Z,97.70
2023-04-18T01:14:08.788Z,97.50
2023-04-18T01:16:37.227Z,97.60
2023-04-18T01:19:05.253Z,97.80
2023-04-18T01:21:43.929Z,97.80
2023-04-18T01:24:15.629Z,98.20
2023-04-18T01:26:44.917Z,98.10
2023-04-18T01:29:12.246Z,98.30
2023-04-18T01:31:40.685Z,98.60
2023-04-18T01:34:09.250Z,98.50
2023-04-18T01:36:37.815Z,98.50
2023-04-18T01:39:04.946Z,98.40
2023-04-18T01:41:32.704Z,98.10
2023-04-18T01:44:00.045Z,97.90
2023-04-18T01:46:27.929Z,98.10
2023-04-18T01:48:55.315Z,98.40
2023-04-18T01:51:22.417Z,98.30
2023-04-18T01:53:49.449Z,98.50
2023-04-18T01:56:16.415Z,98.80
2023-04-18T01:58:43.261Z,98.80
2023-04-18T02:01:10.403Z,98.70
2023-04-18T02:03:37.793Z,99.00
2023-04-18T02:06:06.610Z,99.00
2023-04-18T02:08:36.097Z,99.00
2023-04-18T02:11:03.124Z,99.00
2023-04-18T02:13:29.955Z,99.00
2023-04-18T02:15:56.928Z,98.80
2023-04-18T02:18:25.514Z,99.10
2023-04-18T02:20:52.846Z,98.90
2023-04-18T02:23:19.778Z,99.20
2023-04-18T02:25:46.661Z,99.50
2023-04-18T02:28:13.495Z,99.40
2023-04-18T02:30:40.345Z,99.30
2023-04-18T02:33:07.214Z,99.60
2023-04-18T02:35:35.270Z,99.70
2023-04-18T02:38:02.222Z,99.60
2023-04-18T02:40:29.038Z,99.40
2023-04-18T02:42:55.871Z,99.40
2023-04-18T02:45:22.715Z,99.40
2023-04-18T02:47:55.595Z,99.30
2023-04-18T02:50:23.856Z,99.50
2023-04-18T02:52:51.040Z,99.70
2023-04-18T02:55:18.060Z,99.90
2023-04-18T02:57:44.995Z,99.90
2023-04-18T03:00:13.682Z,99.90
2023-04-18T03:02:41.017Z,99.90
2023-04-18T03:05:08.340Z,99.90
2023-04-18T03:07:35.535Z,99.90
2023-04-18T03:10:02.367Z,99.90
2023-04-18T03:12:29.537Z,99.90
2023-04-18T03:14:56.436Z,99.90
2023-04-18T03:17:23.550Z,99.90
2023-04-18T03:19:50.562Z,99.90
2023-04-18T03:22:17.821Z,99.90
2023-04-18T03:24:44.784Z,99.90
2023-04-18T03:27:12.535Z,99.90
2023-04-18T03:29:39.320Z,99.90
2023-04-18T03:32:06.174Z,99.90
2023-04-18T03:34:32.984Z,99.90
2023-04-18T03:36:59.843Z,99.90
2023-04-18T03:39:26.646Z,99.90
2023-04-18T03:41:53.506Z,99.90
2023-04-18T03:44:20.344Z,99.90
2023-04-18T03:46:47.252Z,99.90
2023-04-18T03:49:14.116Z,99.90
2023-04-18T03:51:49.305Z,99.90
2023-04-18T03:54:17.228Z,99.90
2023-04-18T03:56:44.651Z,99.90
2023-04-18T03:59:12.023Z,99.90
2023-04-18T04:01:38.912Z,99.90
2023-04-18T04:04:05.964Z,99.90
2023-04-18T04:06:33.081Z,99.90
2023-04-18T04:08:59.914Z,99.90
2023-04-18T04:11:27.121Z,99.90
2023-04-18T04:13:54.024Z,99.90
2023-04-18T04:16:21.006Z,99.90
2023-04-18T04:18:48.733Z,99.90
2023-04-18T04:21:15.871Z,99.90
2023-04-18T04:23:42.942Z,99.90
2023-04-18T04:26:10.131Z,99.90
2023-04-18T04:28:36.993Z,99.90
2023-04-18T04:31:08.357Z,99.90
2023-04-18T04:33:35.817Z,99.90
2023-04-18T04:36:02.679Z,99.50
2023-04-18T04:38:31.029Z,99.80
2023-04-18T04:40:58.519Z,99.80
2023-04-18T04:43:26.092Z,99.90
2023-04-18T04:45:53.711Z,99.80
2023-04-18T04:48:22.167Z,99.60
2023-04-18T04:51:00.110Z,99.10
2023-04-18T04:53:30.549Z,99.10
2023-04-18T04:55:58.587Z,99.10
2023-04-18T04:58:25.692Z,98.70
2023-04-18T05:00:53.669Z,98.40
2023-04-18T05:03:21.098Z,97.30
2023-04-18T05:05:48.685Z,97.40
2023-04-18T05:08:15.550Z,97.10
2023-04-18T05:10:43.387Z,97.00
2023-04-18T05:13:10.342Z,96.30
2023-04-18T05:15:37.225Z,96.20
2023-04-18T05:18:04.466Z,95.90
2023-04-18T05:20:31.384Z,96.00
2023-04-18T05:22:58.231Z,95.60
2023-04-18T05:25:25.180Z,95.40
2023-04-18T05:27:52.137Z,94.80
2023-04-18T05:30:19.086Z,95.00
2023-04-18T05:32:46.019Z,95.20
2023-04-18T05:35:12.869Z,95.00
2023-04-18T05:37:39.719Z,95.20
2023-04-18T05:40:07.326Z,95.00
2023-04-18T05:42:34.224Z,95.40
2023-04-18T05:45:01.091Z,95.20
2023-04-18T05:47:28.648Z,95.00
2023-04-18T05:49:56.020Z,94.80
2023-04-18T05:52:22.963Z,95.20
2023-04-18T05:54:49.865Z,94.70
2023-04-18T05:57:16.764Z,94.10
2023-04-18T05:59:43.733Z,93.70
2023-04-18T06:02:13.827Z,93.20
2023-04-18T06:04:42.082Z,93.20
2023-04-18T06:07:09.917Z,92.70
2023-04-18T06:09:36.942Z,92.30
2023-04-18T06:12:04.155Z,91.40
2023-04-18T06:14:31.237Z,91.00
2023-04-18T06:16:58.177Z,88.50
2023-04-18T06:19:25.175Z,89.10
2023-04-18T06:21:53.465Z,89.00
2023-04-18T06:24:21.513Z,89.00
2023-04-18T06:26:48.491Z,86.80
2023-04-18T06:29:15.342Z,87.30
2023-04-18T06:31:45.495Z,88.40
2023-04-18T06:34:13.149Z,87.30
2023-04-18T06:36:40.367Z,88.50
2023-04-18T06:39:07.250Z,87.90
2023-04-18T06:41:34.138Z,85.80
2023-04-18T06:44:04.021Z,84.10
2023-04-18T06:46:32.079Z,82.70
2023-04-18T06:48:59.290Z,79.70
2023-04-18T06:51:26.927Z,80.20
2023-04-18T06:53:53.856Z,80.80
2023-04-18T06:56:21.668Z,81.80
2023-04-18T06:58:48.843Z,83.20
2023-04-18T07:01:16.096Z,84.40
2023-04-18T07:03:43.241Z,85.30
2023-04-18T07:06:11.004Z,85.80
2023-04-18T07:08:37.988Z,86.50
2023-04-18T07:11:05.758Z,86.50
2023-04-18T07:13:32.816Z,86.00
2023-04-18T07:15:59.970Z,86.80
2023-04-18T07:18:37.332Z,85.00
2023-04-18T07:21:07.540Z,84.50
2023-04-18T07:23:35.084Z,84.50
2023-04-18T07:26:02.997Z,85.00
2023-04-18T07:28:31.992Z,86.10
2023-04-18T07:30:59.496Z,87.40
2023-04-18T07:33:26.463Z,87.40
2023-04-18T07:35:53.323Z,87.60
2023-04-18T07:38:20.700Z,87.60
2023-04-18T07:40:47.596Z,86.60
2023-04-18T07:43:15.132Z,86.60
2023-04-18T07:45:43.416Z,86.80
2023-04-18T07:48:11.357Z,87.80
2023-04-18T07:50:38.376Z,88.20
2023-04-18T07:53:05.325Z,88.60
2023-04-18T07:55:32.284Z,88.10
2023-04-18T07:57:59.062Z,88.10
2023-04-18T08:00:26.875Z,87.40
2023-04-18T08:02:54.609Z,87.10
2023-04-18T08:05:21.652Z,87.30
2023-04-18T08:07:48.474Z,87.70
2023-04-18T08:10:15.298Z,87.30
2023-04-18T08:12:42.581Z,86.80
2023-04-18T08:15:09.875Z,86.40
2023-04-18T08:17:38.933Z,86.90
2023-04-18T08:20:06.510Z,87.10
2023-04-18T08:22:33.866Z,86.80
2023-04-18T08:25:05.393Z,87.20
2023-04-18T08:27:32.955Z,87.70
2023-04-18T08:30:04.512Z,88.90
2023-04-18T08:32:35.762Z,88.80
2023-04-18T08:35:04.076Z,89.00
2023-04-18T08:37:31.730Z,89.40
2023-04-18T08:39:58.615Z,89.50
2023-04-18T08:42:26.042Z,89.60
2023-04-18T08:44:54.106Z,89.60
2023-04-18T08:47:21.678Z,89.90
2023-04-18T08:49:48.930Z,89.40
2023-04-18T08:52:19.346Z,89.50
2023-04-18T08:54:47.321Z,88.50
2023-04-18T08:57:28.535Z,89.00
2023-04-18T08:59:55.696Z,88.10
2023-04-18T09:02:35.152Z,87.50
2023-04-18T09:05:14.776Z,87.30
2023-04-18T09:07:42.392Z,86.20
2023-04-18T09:10:10.173Z,86.00
2023-04-18T09:12:50.705Z,85.60
2023-04-18T09:15:23.725Z,84.50
2023-04-18T09:17:54.564Z,84.00
2023-04-18T09:20:35.248Z,83.10
2023-04-18T09:23:04.588Z,83.90
2023-04-18T09:25:43.298Z,83.40
2023-04-18T09:28:24.811Z,83.40
2023-04-18T09:30:52.711Z,83.80
2023-04-18T09:33:28.376Z,84.00
2023-04-18T09:35:56.605Z,84.60
2023-04-18T09:38:41.102Z,84.40
2023-04-18T09:41:09.258Z,85.40
2023-04-18T09:43:36.188Z,85.10
2023-04-18T09:46:04.521Z,84.70
2023-04-18T09:48:31.634Z,83.90
2023-04-18T09:51:04.885Z,83.60
2023-04-18T09:53:32.465Z,81.70
2023-04-18T09:55:59.797Z,82.00
2023-04-18T09:58:32.939Z,81.50
2023-04-18T10:01:00.025Z,81.20
2023-04-18T10:03:35.291Z,81.10
2023-04-18T10:06:02.932Z,81.20
2023-04-18T10:08:30.133Z,80.70
2023-04-18T10:10:58.682Z,81.90
2023-04-18T10:13:27.814Z,81.10
2023-04-18T10:15:55.605Z,80.40
2023-04-18T10:18:25.737Z,80.70
2023-04-18T10:21:02.321Z,81.40
2023-04-18T10:23:32.229Z,80.50
2023-04-18T10:25:59.404Z,80.00
2023-04-18T10:28:27.702Z,79.40
2023-04-18T10:31:05.876Z,78.10
2023-04-18T10:33:40.942Z,78.10
2023-04-18T10:36:09.626Z,78.50
2023-04-18T10:38:45.166Z,79.00
2023-04-18T10:41:16.763Z,78.60
2023-04-18T10:44:18.657Z,79.10
2023-04-18T10:46:48.222Z,79.30
2023-04-18T10:49:28.316Z,77.10
2023-04-18T10:52:01.781Z,78.40
2023-04-18T10:55:07.687Z,79.20
2023-04-18T10:57:41.467Z,78.70
2023-04-18T11:00:14.004Z,78.20
2023-04-18T11:02:48.956Z,79.60
2023-04-18T11:05:20.973Z,80.50
2023-04-18T11:07:50.872Z,78.70
2023-04-18T11:10:20.940Z,78.50
2023-04-18T11:12:48.464Z,78.20
2023-04-18T11:15:17.777Z,77.30
2023-04-18T11:17:44.848Z,77.90
2023-04-18T11:20:15.211Z,79.20
2023-04-18T11:22:50.458Z,79.10
2023-04-18T11:25:18.724Z,80.40
2023-04-18T11:27:48.226Z,82.10
2023-04-18T11:30:15.854Z,80.80
2023-04-18T11:32:42.830Z,81.90
2023-04-18T11:35:11.040Z,81.80
2023-04-18T11:37:39.895Z,83.10
2023-04-18T11:40:09.657Z,83.90
2023-04-18T11:42:39.077Z,83.90
2023-04-18T11:45:15.981Z,83.90
2023-04-18T11:47:43.807Z,84.00
2023-04-18T11:50:12.696Z,85.40
2023-04-18T11:52:41.653Z,86.20
2023-04-18T11:55:17.642Z,88.20
2023-04-18T11:58:06.407Z,88.40
2023-04-18T12:00:35.572Z,88.60
2023-04-18T12:03:04.882Z,89.10
2023-04-18T12:05:37.158Z,89.00
2023-04-18T12:08:07.117Z,90.00
2023-04-18T12:10:35.873Z,90.60
2023-04-18T12:13:08.086Z,92.10
2023-04-18T12:15:41.586Z,91.60
2023-04-18T12:18:08.635Z,93.70
2023-04-18T12:20:53.997Z,94.40
2023-04-18T12:23:42.535Z,96.60
2023-04-18T12:26:21.113Z,97.30
2023-04-18T12:28:51.160Z,98.80
2023-04-18T12:31:18.090Z,99.30
2023-04-18T12:33:44.949Z,99.70
2023-04-18T12:36:11.836Z,99.90
2023-04-18T12:38:38.880Z,99.90
2023-04-18T12:41:05.739Z,99.90
2023-04-18T12:43:32.646Z,99.90
2023-04-18T12:46:00.438Z,99.90
2023-04-18T12:48:27.290Z,99.90
2023-04-18T12:50:54.371Z,99.90
2023-04-18T12:53:21.357Z,99.90
2023-04-18T12:55:48.222Z,99.90
2023-04-18T12:58:18.590Z,99.90
2023-04-18T13:00:45.969Z,99.90
2023-04-18T13:03:13.570Z,99.90
2023-04-18T13:05:41.074Z,99.90
2023-04-18T13:08:16.938Z,99.90
2023-04-18T13:10:46.151Z,99.90
2023-04-18T13:13:13.422Z,99.90
2023-04-18T13:15:40.548Z,99.90
2023-04-18T13:18:07.499Z,99.90
2023-04-18T13:20:34.677Z,99.90
2023-04-18T13:23:04.983Z,99.90
2023-04-18T13:25:31.888Z,99.90
2023-04-18T13:28:00.742Z,99.90
2023-04-18T13:30:27.999Z,99.90
2023-04-18T13:32:55.365Z,99.90
2023-04-18T13:35:22.278Z,99.90
2023-04-18T13:37:49.229Z,99.90
2023-04-18T13:40:16.194Z,99.90
2023-04-18T13:42:43.278Z,99.90
2023-04-18T13:45:10.641Z,99.90
2023-04-18T13:47:37.595Z,99.90
2023-04-18T13:50:05.588Z,99.90
2023-04-18T13:52:32.591Z,99.90
2023-04-18T13:54:59.360Z,99.90
2023-04-18T13:57:26.215Z,99.90
2023-04-18T13:59:53.035Z,99.90
2023-04-18T14:02:19.967Z,99.90
2023-04-18T14:04:46.968Z,99.90
2023-04-18T14:07:13.930Z,99.90
2023-04-18T14:09:40.772Z,99.90
2023-04-18T14:12:07.762Z,99.90
2023-04-18T14:14:34.662Z,99.90
2023-04-18T14:17:01.623Z,99.90
2023-04-18T14:19:28.499Z,99.90
2023-04-18T14:21:55.373Z,99.90
2023-04-18T14:24:22.283Z,99.90
2023-04-18T14:26:49.169Z,99.90
2023-04-18T14:29:16.637Z,99.90
2023-04-18T14:31:43.771Z,99.90
2023-04-18T14:34:10.715Z,99.90
2023-04-18T14:36:37.695Z,99.90
2023-04-18T14:39:05.429Z,99.90
2023-04-18T14:41:32.347Z,99.90
2023-04-18T14:43:59.626Z,99.90
2023-04-18T14:46:28.279Z,99.90
2023-04-18T14:48:55.413Z,99.90
2023-04-18T14:51:22.956Z,99.90
2023-04-18T14:53:50.112Z,99.90
2023-04-18T14:56:23.675Z,99.90
2023-04-18T14:58:50.678Z,99.90
2023-04-18T15:01:17.638Z,99.90
2023-04-18T15:03:45.510Z,99.90
2023-04-18T15:06:12.654Z,99.90
2023-04-18T15:08:39.496Z,99.90
2023-04-18T15:11:09.669Z,99.90
2023-04-18T15:13:36.794Z,99.90
2023-04-18T15:16:03.841Z,99.90
2023-04-18T15:18:30.768Z,99.90
2023-04-18T15:21:00.237Z,99.90
2023-04-18T15:23:27.591Z,99.90
2023-04-18T15:25:54.619Z,99.90
2023-04-18T15:28:21.491Z,99.90
2023-04-18T15:30:48.389Z,99.90
2023-04-18T15:33:15.896Z,99.90
2023-04-18T15:35:42.750Z,99.90
2023-04-18T15:38:09.632Z,99.90
2023-04-18T15:40:36.633Z,99.90
2023-04-18T15:43:04.259Z,99.90
2023-04-18T15:45:31.348Z,99.90
2023-04-18T15:47:58.719Z,99.90
2023-04-18T15:50:26.117Z,99.90
2023-04-18T15:52:52.982Z,99.90
2023-04-18T15:55:19.824Z,99.90
2023-04-18T15:57:47.085Z,99.90
2023-04-18T16:00:17.465Z,99.90
2023-04-18T16:02:46.037Z,99.90
2023-04-18T16:05:13.695Z,99.90
2023-04-18T16:07:41.464Z,99.90
2023-04-18T16:10:10.572Z,99.90
2023-04-18T16:12:38.917Z,99.90
2023-04-18T16:15:08.251Z,99.90
2023-04-18T16:17:36.402Z,99.90
2023-04-18T16:20:03.768Z,99.90
2023-04-18T16:22:30.695Z,99.90
2023-04-18T16:24:57.500Z,99.90
2023-04-18T16:27:24.344Z,99.90
2023-04-18T16:29:51.475Z,99.90
2023-04-18T16:32:18.371Z,99.90
2023-04-18T16:34:45.535Z,99.90
2023-04-18T16:37:12.364Z,99.90
2023-04-18T16:39:39.335Z,99.90
2023-04-18T16:42:06.194Z,99.90
2023-04-18T16:44:33.392Z,99.90
2023-04-18T16:47:00.442Z,99.90
2023-04-18T16:49:27.370Z,99.90
2023-04-18T16:51:54.277Z,99.90
2023-04-18T16:54:21.331Z,99.90
2023-04-18T16:56:48.409Z,99.90
2023-04-18T16:59:15.380Z,99.90
2023-04-18T17:01:42.325Z,99.90
2023-04-18T17:04:09.219Z,99.90
2023-04-18T17:06:36.073Z,99.90
2023-04-18T17:09:06.399Z,99.90
2023-04-18T17:11:38.823Z,99.90
2023-04-18T17:14:07.704Z,99.90
2023-04-18T17:16:39.176Z,99.90
2023-04-18T17:19:06.656Z,99.90
2023-04-18T17:21:37.161Z,99.90
2023-04-18T17:24:06.980Z,99.90
2023-04-18T17:26:34.837Z,99.90
2023-04-18T17:29:04.173Z,99.90
2023-04-18T17:31:31.855Z,99.90
2023-04-18T17:33:59.086Z,99.90
2023-04-18T17:36:26.370Z,99.90
2023-04-18T17:38:56.238Z,99.90
2023-04-18T17:41:23.304Z,99.90
2023-04-18T17:43:53.657Z,99.90
2023-04-18T17:46:20.617Z,99.90
2023-04-18T17:48:47.598Z,99.90
2023-04-18T17:51:16.560Z,99.90
2023-04-18T17:53:43.465Z,99.90
2023-04-18T17:56:10.359Z,99.90
2023-04-18T17:58:37.283Z,99.90
2023-04-18T18:01:04.457Z,99.90
2023-04-18T18:03:31.590Z,99.90
2023-04-18T18:05:58.569Z,99.90
2023-04-18T18:08:25.779Z,99.90
2023-04-18T18:10:52.579Z,99.90
2023-04-18T18:13:19.487Z,99.90
2023-04-18T18:15:46.360Z,99.90
2023-04-18T18:18:13.119Z,99.90
2023-04-18T18:20:43.155Z,99.90
2023-04-18T18:23:10.183Z,99.90
2023-04-18T18:25:37.819Z,99.90
2023-04-18T18:28:04.805Z,99.90
2023-04-18T18:30:31.660Z,99.90
2023-04-18T18:32:58.549Z,99.90
2023-04-18T18:35:25.547Z,99.90
2023-04-18T18:37:52.396Z,99.90
2023-04-18T18:40:19.443Z,99.90
2023-04-18T18:42:46.263Z,99.90
2023-04-18T18:45:13.078Z,99.90
2023-04-18T18:47:40.612Z,99.90
2023-04-18T18:50:07.846Z,99.90
2023-04-18T18:52:34.710Z,99.90
2023-04-18T18:55:01.685Z,99.90
2023-04-18T18:57:28.568Z,99.90
2023-04-18T18:59:56.042Z,99.90
2023-04-18T19:02:23.265Z,99.90
2023-04-18T19:04:50.288Z,99.90
2023-04-18T19:07:17.235Z,99.90
2023-04-18T19:09:44.074Z,99.90
2023-04-18T19:12:11.001Z,99.90
2023-04-18T19:14:37.897Z,99.90
2023-04-18T19:17:05.003Z,99.90
2023-04-18T19:19:31.846Z,99.90
2023-04-18T19:22:00.639Z,99.90
2023-04-18T19:24:27.550Z,99.90
2023-04-18T19:26:54.417Z,99.90
2023-04-18T19:29:22.753Z,99.90
2023-04-18T19:31:49.665Z,99.90
2023-04-18T19:34:19.041Z,99.90
2023-04-18T19:36:45.908Z,99.90
2023-04-18T19:39:12.885Z,99.90
2023-04-18T19:41:41.605Z,99.90
2023-04-18T19:44:08.725Z,99.90
2023-04-18T19:46:35.670Z,99.90
2023-04-18T19:49:02.615Z,99.90
2023-04-18T19:51:29.428Z,99.90
2023-04-18T19:53:56.299Z,99.90
2023-04-18T19:56:23.273Z,99.90
2023-04-18T19:58:51.092Z,99.90
2023-04-18T20:01:20.179Z,99.90
2023-04-18T20:03:47.761Z,99.90
2023-04-18T20:06:16.748Z,99.90
2023-04-18T20:08:45.145Z,99.90
2023-04-18T20:11:14.177Z,99.90
2023-04-18T20:13:41.587Z,99.90
2023-04-18T20:16:09.238Z,99.90
2023-04-18T20:18:41.451Z,99.90
2023-04-18T20:21:09.867Z,99.90
2023-04-18T20:23:37.491Z,99.90
2023-04-18T20:26:04.654Z,99.90
2023-04-18T20:28:32.025Z,99.90
2023-04-18T20:30:58.978Z,99.90
2023-04-18T20:33:26.244Z,99.90
2023-04-18T20:35:57.725Z,99.90
2023-04-18T20:38:25.926Z,99.90
2023-04-18T20:40:54.288Z,99.90
2023-04-18T20:43:21.607Z,99.90
2023-04-18T20:45:51.565Z,99.90
2023-04-18T20:48:18.670Z,99.90
2023-04-18T20:50:51.130Z,99.90
2023-04-18T20:53:22.554Z,99.90
2023-04-18T20:55:49.470Z,99.90
2023-04-18T20:58:16.883Z,99.90
2023-04-18T21:00:46.623Z,99.90
2023-04-18T21:03:14.386Z,99.90
2023-04-18T21:05:42.944Z,99.90
2023-04-18T21:08:13.827Z,99.90
2023-04-18T21:10:40.723Z,99.90
2023-04-18T21:13:09.264Z,99.90
2023-04-18T21:15:36.326Z,99.90
2023-04-18T21:18:03.271Z,99.90
2023-04-18T21:20:30.191Z,99.90
2023-04-18T21:22:57.033Z,99.90
2023-04-18T21:25:23.875Z,99.90
2023-04-18T21:27:50.951Z,99.90
2023-04-18T21:30:18.104Z,99.90
2023-04-18T21:32:46.140Z,99.90
2023-04-18T21:35:13.276Z,99.90
2023-04-18T21:37:40.168Z,99.90
2023-04-18T21:40:07.772Z,99.90
2023-04-18T21:42:35.846Z,99.90
2023-04-18T21:45:02.900Z,99.90
2023-04-18T21:47:29.901Z,99.90
2023-04-18T21:49:56.825Z,99.90
2023-04-18T21:52:23.671Z,99.90
2023-04-18T21:54:50.624Z,99.90
2023-04-18T21:57:17.612Z,99.90
2023-04-18T21:59:44.694Z,99.90
2023-04-18T22:02:12.222Z,99.90
2023-04-18T22:04:42.554Z,99.90
2023-04-18T22:07:10.053Z,99.90
2023-04-18T22:09:37.195Z,99.50
2023-04-18T22:12:04.569Z,99.80
2023-04-18T22:14:34.546Z,99.70
2023-04-18T22:17:04.882Z,98.50
2023-04-18T22:19:32.010Z,99.20
2023-04-18T22:21:59.040Z,98.70
2023-04-18T22:24:26.086Z,98.90
2023-04-18T22:26:53.510Z,99.20
2023-04-18T22:29:20.389Z,98.60
2023-04-18T22:31:47.223Z,98.30
2023-04-18T22:34:14.362Z,97.30
2023-04-18T22:36:42.825Z,97.70
2023-04-18T22:39:09.868Z,97.90
2023-04-18T22:41:36.967Z,97.40
2023-04-18T22:44:04.742Z,97.80
2023-04-18T22:46:32.934Z,97.50
2023-04-18T22:49:00.096Z,97.70
2023-04-18T22:51:28.660Z,97.70
2023-04-18T22:53:56.135Z,97.50
2023-04-18T22:56:23.417Z,97.60
2023-04-18T22:58:50.243Z,97.80
2023-04-18T23:01:17.086Z,98.00
2023-04-18T23:03:44.330Z,98.00
2023-04-18T23:06:11.345Z,98.40
2023-04-18T23:08:38.343Z,98.60
2023-04-18T23:11:05.193Z,98.90
2023-04-18T23:13:31.964Z,99.20
2023-04-18T23:15:58.977Z,99.50
2023-04-18T23:18:28.459Z,99.90
2023-04-18T23:20:55.491Z,99.90
2023-04-18T23:23:22.319Z,99.90
2023-04-18T23:25:49.068Z,99.90
2023-04-18T23:28:17.112Z,99.90
2023-04-18T23:30:44.227Z,99.90
2023-04-18T23:33:11.202Z,99.90
2023-04-18T23:35:38.028Z,99.90
2023-04-18T23:38:04.810Z,99.20
2023-04-18T23:40:31.721Z,99.70
2023-04-18T23:42:58.951Z,99.30
2023-04-18T23:45:25.774Z,98.30
2023-04-18T23:47:52.770Z,98.50
2023-04-18T23:50:19.706Z,98.60
2023-04-18T23:52:46.714Z,98.80
2023-04-18T23:55:13.671Z,98.40
2023-04-18T23:57:40.539Z,98.40
